sensor_id;sensor_type;location;lat;lon;timestamp;temperature;humidity
77207;DHT22;66190;50.708;7.906;2022-12-29T00:00:06;9.00;87.30
77207;DHT22;66190;50.708;7.906;2022-12-29T00:02:32;8.90;87.60
77207;DHT22;66190;50.708;7.906;2022-12-29T00:04:58;9.00;87.30
77207;DHT22;66190;50.708;7.906;2022-12-29T00:07:23;9.00;87.50
77207;DHT22;66190;50.708;7.906;2022-12-29T00:09:49;8.90;87.70
77207;DHT22;66190;50.708;7.906;2022-12-29T00:12:15;8.90;87.80
77207;DHT22;66190;50.708;7.906;2022-12-29T00:14:40;9.00;87.80
77207;DHT22;66190;50.708;7.906;2022-12-29T00:17:24;8.90;88.20
77207;DHT22;66190;50.708;7.906;2022-12-29T00:19:50;8.90;88.30
77207;DHT22;66190;50.708;7.906;2022-12-29T00:22:34;8.90;88.40
77207;DHT22;66190;50.708;7.906;2022-12-29T00:25:18;8.90;88.80
77207;DHT22;66190;50.708;7.906;2022-12-29T00:28:02;8.90;89.10
77207;DHT22;66190;50.708;7.906;2022-12-29T00:30:47;8.80;89.60
77207;DHT22;66190;50.708;7.906;2022-12-29T00:33:33;8.80;89.70
77207;DHT22;66190;50.708;7.906;2022-12-29T00:36:31;8.80;90.00
77207;DHT22;66190;50.708;7.906;2022-12-29T00:39:03;8.80;90.10
77207;DHT22;66190;50.708;7.906;2022-12-29T00:41:50;8.80;90.20
77207;DHT22;66190;50.708;7.906;2022-12-29T00:44:34;8.70;90.40
77207;DHT22;66190;50.708;7.906;2022-12-29T00:47:00;8.70;90.50
77207;DHT22;66190;50.708;7.906;2022-12-29T00:49:30;8.70;90.50
77207;DHT22;66190;50.708;7.906;2022-12-29T00:51:58;8.70;90.50
77207;DHT22;66190;50.708;7.906;2022-12-29T00:54:24;8.70;90.60
77207;DHT22;66190;50.708;7.906;2022-12-29T00:56:51;8.70;90.60
77207;DHT22;66190;50.708;7.906;2022-12-29T00:59:18;8.70;90.60
77207;DHT22;66190;50.708;7.906;2022-12-29T01:01:44;8.70;90.60
77207;DHT22;66190;50.708;7.906;2022-12-29T01:04:11;8.70;90.80
77207;DHT22;66190;50.708;7.906;2022-12-29T01:06:39;8.80;90.40
77207;DHT22;66190;50.708;7.906;2022-12-29T01:09:06;8.70;90.50
77207;DHT22;66190;50.708;7.906;2022-12-29T01:11:50;8.80;90.40
77207;DHT22;66190;50.708;7.906;2022-12-29T01:14:17;8.80;90.30
77207;DHT22;66190;50.708;7.906;2022-12-29T01:16:42;8.80;90.40
77207;DHT22;66190;50.708;7.906;2022-12-29T01:19:08;8.80;90.30
77207;DHT22;66190;50.708;7.906;2022-12-29T01:21:34;8.80;90.40
77207;DHT22;66190;50.708;7.906;2022-12-29T01:23:59;8.80;90.30
77207;DHT22;66190;50.708;7.906;2022-12-29T01:26:25;8.90;90.10
77207;DHT22;66190;50.708;7.906;2022-12-29T01:28:51;8.90;90.10
77207;DHT22;66190;50.708;7.906;2022-12-29T01:31:17;8.90;90.10
77207;DHT22;66190;50.708;7.906;2022-12-29T01:33:43;8.90;90.00
77207;DHT22;66190;50.708;7.906;2022-12-29T01:36:11;8.90;90.00
77207;DHT22;66190;50.708;7.906;2022-12-29T01:38:38;8.90;90.20
77207;DHT22;66190;50.708;7.906;2022-12-29T01:41:05;8.90;90.10
77207;DHT22;66190;50.708;7.906;2022-12-29T01:43:51;8.90;90.30
77207;DHT22;66190;50.708;7.906;2022-12-29T01:46:25;8.80;90.50
77207;DHT22;66190;50.708;7.906;2022-12-29T01:51:31;8.80;90.70
77207;DHT22;66190;50.708;7.906;2022-12-29T01:54:00;8.70;90.80
77207;DHT22;66190;50.708;7.906;2022-12-29T01:56:27;8.70;91.00
77207;DHT22;66190;50.708;7.906;2022-12-29T01:59:01;8.70;90.90
77207;DHT22;66190;50.708;7.906;2022-12-29T02:01:27;8.70;90.90
77207;DHT22;66190;50.708;7.906;2022-12-29T02:03:53;8.70;90.80
77207;DHT22;66190;50.708;7.906;2022-12-29T02:06:26;8.70;90.80
77207;DHT22;66190;50.708;7.906;2022-12-29T02:08:55;8.70;91.00
77207;DHT22;66190;50.708;7.906;2022-12-29T02:11:23;8.70;91.00
77207;DHT22;66190;50.708;7.906;2022-12-29T02:13:49;8.70;90.90
77207;DHT22;66190;50.708;7.906;2022-12-29T02:33:21;8.70;91.40
77207;DHT22;66190;50.708;7.906;2022-12-29T02:41:57;8.60;91.90
77207;DHT22;66190;50.708;7.906;2022-12-29T02:52:34;8.40;93.20
77207;DHT22;66190;50.708;7.906;2022-12-29T02:55:01;8.40;93.40
77207;DHT22;66190;50.708;7.906;2022-12-29T02:57:35;8.40;93.40
77207;DHT22;66190;50.708;7.906;2022-12-29T03:00:14;8.50;93.40
77207;DHT22;66190;50.708;7.906;2022-12-29T03:08:55;8.40;93.80
77207;DHT22;66190;50.708;7.906;2022-12-29T03:11:30;8.40;93.80
77207;DHT22;66190;50.708;7.906;2022-12-29T03:15:05;8.50;93.70
77207;DHT22;66190;50.708;7.906;2022-12-29T03:18:15;8.50;93.60
77207;DHT22;66190;50.708;7.906;2022-12-29T03:23:39;8.60;93.20
77207;DHT22;66190;50.708;7.906;2022-12-29T03:26:08;8.60;93.20
77207;DHT22;66190;50.708;7.906;2022-12-29T03:28:39;8.50;93.10
77207;DHT22;66190;50.708;7.906;2022-12-29T03:31:07;8.50;93.20
77207;DHT22;66190;50.708;7.906;2022-12-29T03:33:35;8.60;93.20
77207;DHT22;66190;50.708;7.906;2022-12-29T03:36:06;8.50;93.50
77207;DHT22;66190;50.708;7.906;2022-12-29T03:38:37;8.50;93.90
77207;DHT22;66190;50.708;7.906;2022-12-29T03:41:09;8.50;94.00
77207;DHT22;66190;50.708;7.906;2022-12-29T03:43:36;8.50;94.00
77207;DHT22;66190;50.708;7.906;2022-12-29T03:46:02;8.50;94.00
77207;DHT22;66190;50.708;7.906;2022-12-29T03:48:28;8.50;94.30
77207;DHT22;66190;50.708;7.906;2022-12-29T03:50:53;8.40;94.30
77207;DHT22;66190;50.708;7.906;2022-12-29T03:53:19;8.40;94.50
77207;DHT22;66190;50.708;7.906;2022-12-29T03:55:45;8.50;94.20
77207;DHT22;66190;50.708;7.906;2022-12-29T03:58:10;8.50;94.20
77207;DHT22;66190;50.708;7.906;2022-12-29T04:00:36;8.40;94.50
77207;DHT22;66190;50.708;7.906;2022-12-29T04:03:02;8.40;94.20
77207;DHT22;66190;50.708;7.906;2022-12-29T04:05:27;8.50;94.10
77207;DHT22;66190;50.708;7.906;2022-12-29T04:07:53;8.50;94.20
77207;DHT22;66190;50.708;7.906;2022-12-29T04:10:19;8.50;93.90
77207;DHT22;66190;50.708;7.906;2022-12-29T04:12:44;8.50;93.80
77207;DHT22;66190;50.708;7.906;2022-12-29T04:15:12;8.50;93.60
77207;DHT22;66190;50.708;7.906;2022-12-29T04:17:37;8.50;93.80
77207;DHT22;66190;50.708;7.906;2022-12-29T04:20:03;8.50;93.70
77207;DHT22;66190;50.708;7.906;2022-12-29T04:22:48;8.50;93.80
77207;DHT22;66190;50.708;7.906;2022-12-29T04:25:13;8.50;93.90
77207;DHT22;66190;50.708;7.906;2022-12-29T04:27:39;8.40;94.10
77207;DHT22;66190;50.708;7.906;2022-12-29T04:30:05;8.40;94.00
77207;DHT22;66190;50.708;7.906;2022-12-29T04:32:31;8.40;94.20
77207;DHT22;66190;50.708;7.906;2022-12-29T04:34:57;8.40;94.10
77207;DHT22;66190;50.708;7.906;2022-12-29T04:37:22;8.40;94.20
77207;DHT22;66190;50.708;7.906;2022-12-29T04:39:48;8.40;94.30
77207;DHT22;66190;50.708;7.906;2022-12-29T04:42:13;8.40;94.20
77207;DHT22;66190;50.708;7.906;2022-12-29T04:44:39;8.40;94.20
77207;DHT22;66190;50.708;7.906;2022-12-29T04:47:05;8.40;94.20
77207;DHT22;66190;50.708;7.906;2022-12-29T04:49:30;8.40;94.10
77207;DHT22;66190;50.708;7.906;2022-12-29T04:51:56;8.40;93.80
77207;DHT22;66190;50.708;7.906;2022-12-29T04:54:22;8.40;94.10
77207;DHT22;66190;50.708;7.906;2022-12-29T04:56:47;8.40;94.00
77207;DHT22;66190;50.708;7.906;2022-12-29T04:59:13;8.40;94.00
77207;DHT22;66190;50.708;7.906;2022-12-29T05:01:39;8.40;94.00
77207;DHT22;66190;50.708;7.906;2022-12-29T05:04:04;8.40;93.80
77207;DHT22;66190;50.708;7.906;2022-12-29T05:06:30;8.40;93.90
77207;DHT22;66190;50.708;7.906;2022-12-29T05:08:56;8.40;93.80
77207;DHT22;66190;50.708;7.906;2022-12-29T05:11:21;8.40;93.90
77207;DHT22;66190;50.708;7.906;2022-12-29T05:13:47;8.40;94.10
77207;DHT22;66190;50.708;7.906;2022-12-29T05:16:13;8.40;94.20
77207;DHT22;66190;50.708;7.906;2022-12-29T05:18:38;8.30;94.30
77207;DHT22;66190;50.708;7.906;2022-12-29T05:21:04;8.40;94.50
77207;DHT22;66190;50.708;7.906;2022-12-29T05:23:30;8.40;94.40
77207;DHT22;66190;50.708;7.906;2022-12-29T05:25:55;8.40;94.50
77207;DHT22;66190;50.708;7.906;2022-12-29T05:28:21;8.30;94.60
77207;DHT22;66190;50.708;7.906;2022-12-29T05:30:50;8.30;94.80
77207;DHT22;66190;50.708;7.906;2022-12-29T05:33:20;8.40;94.70
77207;DHT22;66190;50.708;7.906;2022-12-29T05:35:45;8.30;94.80
77207;DHT22;66190;50.708;7.906;2022-12-29T05:38:11;8.30;94.90
77207;DHT22;66190;50.708;7.906;2022-12-29T05:40:37;8.30;94.70
77207;DHT22;66190;50.708;7.906;2022-12-29T05:43:03;8.30;94.60
77207;DHT22;66190;50.708;7.906;2022-12-29T05:45:28;8.30;94.60
77207;DHT22;66190;50.708;7.906;2022-12-29T05:47:54;8.40;94.10
77207;DHT22;66190;50.708;7.906;2022-12-29T05:50:19;8.40;94.20
77207;DHT22;66190;50.708;7.906;2022-12-29T05:52:45;8.40;94.20
77207;DHT22;66190;50.708;7.906;2022-12-29T05:55:11;8.40;93.90
77207;DHT22;66190;50.708;7.906;2022-12-29T05:57:37;8.40;94.00
77207;DHT22;66190;50.708;7.906;2022-12-29T06:00:04;8.40;93.90
77207;DHT22;66190;50.708;7.906;2022-12-29T06:02:30;8.40;94.10
77207;DHT22;66190;50.708;7.906;2022-12-29T06:04:55;8.40;94.00
77207;DHT22;66190;50.708;7.906;2022-12-29T06:07:21;8.40;94.10
77207;DHT22;66190;50.708;7.906;2022-12-29T06:09:47;8.40;94.00
77207;DHT22;66190;50.708;7.906;2022-12-29T06:12:12;8.40;94.10
77207;DHT22;66190;50.708;7.906;2022-12-29T06:14:38;8.40;94.00
77207;DHT22;66190;50.708;7.906;2022-12-29T06:17:04;8.40;94.20
77207;DHT22;66190;50.708;7.906;2022-12-29T06:19:29;8.40;94.20
77207;DHT22;66190;50.708;7.906;2022-12-29T06:21:55;8.40;94.00
77207;DHT22;66190;50.708;7.906;2022-12-29T06:24:21;8.40;94.00
77207;DHT22;66190;50.708;7.906;2022-12-29T06:26:46;8.40;94.10
77207;DHT22;66190;50.708;7.906;2022-12-29T06:29:12;8.50;93.90
77207;DHT22;66190;50.708;7.906;2022-12-29T06:31:42;8.40;94.00
77207;DHT22;66190;50.708;7.906;2022-12-29T06:34:08;8.40;94.10
77207;DHT22;66190;50.708;7.906;2022-12-29T06:36:34;8.40;94.10
77207;DHT22;66190;50.708;7.906;2022-12-29T06:39:00;8.40;94.10
77207;DHT22;66190;50.708;7.906;2022-12-29T06:41:25;8.40;94.20
77207;DHT22;66190;50.708;7.906;2022-12-29T06:43:51;8.40;94.00
77207;DHT22;66190;50.708;7.906;2022-12-29T06:46:17;8.50;93.80
77207;DHT22;66190;50.708;7.906;2022-12-29T06:48:43;8.50;93.80
77207;DHT22;66190;50.708;7.906;2022-12-29T06:51:08;8.50;93.60
77207;DHT22;66190;50.708;7.906;2022-12-29T06:53:34;8.50;93.70
77207;DHT22;66190;50.708;7.906;2022-12-29T06:55:59;8.50;93.80
77207;DHT22;66190;50.708;7.906;2022-12-29T06:58:25;8.50;93.80
77207;DHT22;66190;50.708;7.906;2022-12-29T07:00:51;8.50;93.70
77207;DHT22;66190;50.708;7.906;2022-12-29T07:03:16;8.50;93.90
77207;DHT22;66190;50.708;7.906;2022-12-29T07:05:42;8.50;94.00
77207;DHT22;66190;50.708;7.906;2022-12-29T07:08:07;8.50;93.80
77207;DHT22;66190;50.708;7.906;2022-12-29T07:10:33;8.50;93.80
77207;DHT22;66190;50.708;7.906;2022-12-29T07:12:59;8.50;93.90
77207;DHT22;66190;50.708;7.906;2022-12-29T07:15:25;8.50;94.00
77207;DHT22;66190;50.708;7.906;2022-12-29T07:17:50;8.40;94.20
77207;DHT22;66190;50.708;7.906;2022-12-29T07:20:16;8.50;94.10
77207;DHT22;66190;50.708;7.906;2022-12-29T07:22:42;8.50;94.20
77207;DHT22;66190;50.708;7.906;2022-12-29T07:25:08;8.40;94.40
77207;DHT22;66190;50.708;7.906;2022-12-29T07:27:34;8.40;94.70
77207;DHT22;66190;50.708;7.906;2022-12-29T07:29:59;8.40;95.00
77207;DHT22;66190;50.708;7.906;2022-12-29T07:32:25;8.40;95.30
77207;DHT22;66190;50.708;7.906;2022-12-29T07:34:51;8.30;95.50
77207;DHT22;66190;50.708;7.906;2022-12-29T07:37:16;8.40;95.30
77207;DHT22;66190;50.708;7.906;2022-12-29T07:39:42;8.50;94.30
77207;DHT22;66190;50.708;7.906;2022-12-29T07:42:08;8.40;94.20
77207;DHT22;66190;50.708;7.906;2022-12-29T07:44:34;8.30;94.00
77207;DHT22;66190;50.708;7.906;2022-12-29T07:46:59;8.30;94.20
77207;DHT22;66190;50.708;7.906;2022-12-29T07:49:25;8.30;93.70
77207;DHT22;66190;50.708;7.906;2022-12-29T07:51:51;8.30;93.30
77207;DHT22;66190;50.708;7.906;2022-12-29T07:54:16;8.30;93.50
77207;DHT22;66190;50.708;7.906;2022-12-29T07:56:44;8.20;93.20
77207;DHT22;66190;50.708;7.906;2022-12-29T07:59:10;8.30;92.80
77207;DHT22;66190;50.708;7.906;2022-12-29T08:01:37;8.30;92.40
77207;DHT22;66190;50.708;7.906;2022-12-29T08:04:03;8.30;92.20
77207;DHT22;66190;50.708;7.906;2022-12-29T08:06:29;8.20;92.20
77207;DHT22;66190;50.708;7.906;2022-12-29T08:08:56;8.30;91.50
77207;DHT22;66190;50.708;7.906;2022-12-29T08:11:22;8.20;92.00
77207;DHT22;66190;50.708;7.906;2022-12-29T08:13:48;8.20;91.40
77207;DHT22;66190;50.708;7.906;2022-12-29T08:16:13;8.20;91.90
77207;DHT22;66190;50.708;7.906;2022-12-29T08:18:39;8.20;91.80
77207;DHT22;66190;50.708;7.906;2022-12-29T08:21:05;8.20;91.90
77207;DHT22;66190;50.708;7.906;2022-12-29T08:23:31;8.20;91.90
77207;DHT22;66190;50.708;7.906;2022-12-29T08:26:02;8.20;91.50
77207;DHT22;66190;50.708;7.906;2022-12-29T08:28:28;8.20;91.70
77207;DHT22;66190;50.708;7.906;2022-12-29T08:30:54;8.20;91.90
77207;DHT22;66190;50.708;7.906;2022-12-29T08:33:19;8.20;92.10
77207;DHT22;66190;50.708;7.906;2022-12-29T08:35:45;8.10;92.10
77207;DHT22;66190;50.708;7.906;2022-12-29T08:38:10;8.10;92.10
77207;DHT22;66190;50.708;7.906;2022-12-29T08:40:39;8.20;91.70
77207;DHT22;66190;50.708;7.906;2022-12-29T08:43:04;8.20;91.60
77207;DHT22;66190;50.708;7.906;2022-12-29T08:45:31;8.20;91.60
77207;DHT22;66190;50.708;7.906;2022-12-29T08:47:56;8.20;91.60
77207;DHT22;66190;50.708;7.906;2022-12-29T08:50:22;8.20;91.90
77207;DHT22;66190;50.708;7.906;2022-12-29T08:52:48;8.10;91.80
77207;DHT22;66190;50.708;7.906;2022-12-29T08:55:13;8.10;91.60
77207;DHT22;66190;50.708;7.906;2022-12-29T08:57:39;8.10;91.80
77207;DHT22;66190;50.708;7.906;2022-12-29T09:00:05;8.20;91.50
77207;DHT22;66190;50.708;7.906;2022-12-29T09:02:31;8.20;91.30
77207;DHT22;66190;50.708;7.906;2022-12-29T09:04:57;8.20;91.40
77207;DHT22;66190;50.708;7.906;2022-12-29T09:07:23;8.20;91.40
77207;DHT22;66190;50.708;7.906;2022-12-29T09:09:49;8.20;91.30
77207;DHT22;66190;50.708;7.906;2022-12-29T09:12:16;8.20;91.10
77207;DHT22;66190;50.708;7.906;2022-12-29T09:14:42;8.20;91.10
77207;DHT22;66190;50.708;7.906;2022-12-29T09:17:08;8.20;91.10
77207;DHT22;66190;50.708;7.906;2022-12-29T09:19:53;8.20;90.70
77207;DHT22;66190;50.708;7.906;2022-12-29T09:22:18;8.10;90.50
77207;DHT22;66190;50.708;7.906;2022-12-29T09:24:44;8.20;90.40
77207;DHT22;66190;50.708;7.906;2022-12-29T09:27:10;8.10;90.00
77207;DHT22;66190;50.708;7.906;2022-12-29T09:29:35;8.20;88.20
77207;DHT22;66190;50.708;7.906;2022-12-29T09:32:01;8.20;87.30
77207;DHT22;66190;50.708;7.906;2022-12-29T09:34:27;8.20;87.50
77207;DHT22;66190;50.708;7.906;2022-12-29T09:36:52;8.20;86.70
77207;DHT22;66190;50.708;7.906;2022-12-29T09:39:18;8.20;87.20
77207;DHT22;66190;50.708;7.906;2022-12-29T09:47:18;8.30;85.30
77207;DHT22;66190;50.708;7.906;2022-12-29T09:53:00;8.20;85.30
77207;DHT22;66190;50.708;7.906;2022-12-29T09:55:40;8.30;85.40
77207;DHT22;66190;50.708;7.906;2022-12-29T09:58:14;8.30;85.50
77207;DHT22;66190;50.708;7.906;2022-12-29T10:00:56;8.30;85.30
77207;DHT22;66190;50.708;7.906;2022-12-29T10:03:24;8.30;85.70
77207;DHT22;66190;50.708;7.906;2022-12-29T10:06:11;8.30;84.40
77207;DHT22;66190;50.708;7.906;2022-12-29T10:08:39;8.30;84.40
77207;DHT22;66190;50.708;7.906;2022-12-29T10:16:51;8.30;84.30
77207;DHT22;66190;50.708;7.906;2022-12-29T10:24:55;8.30;84.20
77207;DHT22;66190;50.708;7.906;2022-12-29T10:27:30;8.30;84.30
77207;DHT22;66190;50.708;7.906;2022-12-29T10:29:58;8.30;84.40
77207;DHT22;66190;50.708;7.906;2022-12-29T10:32:34;8.30;84.40
77207;DHT22;66190;50.708;7.906;2022-12-29T10:35:14;8.30;83.90
77207;DHT22;66190;50.708;7.906;2022-12-29T10:40:36;8.30;83.80
77207;DHT22;66190;50.708;7.906;2022-12-29T10:43:13;8.40;84.00
77207;DHT22;66190;50.708;7.906;2022-12-29T10:45:41;8.40;83.30
77207;DHT22;66190;50.708;7.906;2022-12-29T10:48:19;8.40;82.80
77207;DHT22;66190;50.708;7.906;2022-12-29T10:50:45;8.40;83.00
77207;DHT22;66190;50.708;7.906;2022-12-29T10:53:21;8.40;83.60
77207;DHT22;66190;50.708;7.906;2022-12-29T10:55:49;8.40;83.60
77207;DHT22;66190;50.708;7.906;2022-12-29T10:58:15;8.40;82.80
77207;DHT22;66190;50.708;7.906;2022-12-29T11:00:43;8.50;83.00
77207;DHT22;66190;50.708;7.906;2022-12-29T11:03:27;8.50;82.70
77207;DHT22;66190;50.708;7.906;2022-12-29T11:08:41;8.60;83.20
77207;DHT22;66190;50.708;7.906;2022-12-29T11:11:10;8.70;81.40
77207;DHT22;66190;50.708;7.906;2022-12-29T11:13:55;8.70;80.30
77207;DHT22;66190;50.708;7.906;2022-12-29T11:16:32;8.80;80.30
77207;DHT22;66190;50.708;7.906;2022-12-29T11:19:00;8.80;79.00
77207;DHT22;66190;50.708;7.906;2022-12-29T11:21:35;8.80;79.50
77207;DHT22;66190;50.708;7.906;2022-12-29T11:24:27;8.80;77.80
77207;DHT22;66190;50.708;7.906;2022-12-29T11:26:55;8.80;78.00
77207;DHT22;66190;50.708;7.906;2022-12-29T11:29:38;8.80;78.20
77207;DHT22;66190;50.708;7.906;2022-12-29T11:32:16;8.80;78.10
77207;DHT22;66190;50.708;7.906;2022-12-29T11:34:42;8.70;78.90
77207;DHT22;66190;50.708;7.906;2022-12-29T11:37:58;8.70;78.30
77207;DHT22;66190;50.708;7.906;2022-12-29T11:45:23;8.70;78.60
77207;DHT22;66190;50.708;7.906;2022-12-29T11:47:53;8.70;78.80
77207;DHT22;66190;50.708;7.906;2022-12-29T11:50:28;8.70;78.40
77207;DHT22;66190;50.708;7.906;2022-12-29T11:56:02;8.70;78.30
77207;DHT22;66190;50.708;7.906;2022-12-29T11:58:30;8.70;78.50
77207;DHT22;66190;50.708;7.906;2022-12-29T12:01:02;8.70;78.90
77207;DHT22;66190;50.708;7.906;2022-12-29T12:03:31;8.70;79.40
77207;DHT22;66190;50.708;7.906;2022-12-29T12:06:11;8.70;79.50
77207;DHT22;66190;50.708;7.906;2022-12-29T12:08:53;8.70;78.60
77207;DHT22;66190;50.708;7.906;2022-12-29T12:11:24;8.70;79.20
77207;DHT22;66190;50.708;7.906;2022-12-29T12:16:59;8.70;77.20
77207;DHT22;66190;50.708;7.906;2022-12-29T12:19:38;8.70;77.70
77207;DHT22;66190;50.708;7.906;2022-12-29T12:22:34;8.70;77.30
77207;DHT22;66190;50.708;7.906;2022-12-29T12:25:21;8.70;77.00
77207;DHT22;66190;50.708;7.906;2022-12-29T12:28:09;8.70;74.70
77207;DHT22;66190;50.708;7.906;2022-12-29T12:30:43;8.70;74.90
77207;DHT22;66190;50.708;7.906;2022-12-29T12:33:24;8.70;74.80
77207;DHT22;66190;50.708;7.906;2022-12-29T12:36:30;8.70;73.80
77207;DHT22;66190;50.708;7.906;2022-12-29T12:39:11;8.60;73.50
77207;DHT22;66190;50.708;7.906;2022-12-29T12:52:58;8.50;73.90
77207;DHT22;66190;50.708;7.906;2022-12-29T12:55:49;8.50;74.20
77207;DHT22;66190;50.708;7.906;2022-12-29T13:06:51;8.50;74.10
77207;DHT22;66190;50.708;7.906;2022-12-29T13:10:15;8.50;73.10
77207;DHT22;66190;50.708;7.906;2022-12-29T13:16:02;8.60;72.20
77207;DHT22;66190;50.708;7.906;2022-12-29T13:23:59;8.40;73.20
77207;DHT22;66190;50.708;7.906;2022-12-29T13:26:35;8.40;72.60
77207;DHT22;66190;50.708;7.906;2022-12-29T13:29:31;8.40;72.90
77207;DHT22;66190;50.708;7.906;2022-12-29T13:32:33;8.40;73.20
77207;DHT22;66190;50.708;7.906;2022-12-29T13:35:10;8.40;72.70
77207;DHT22;66190;50.708;7.906;2022-12-29T13:37:51;8.40;72.50
77207;DHT22;66190;50.708;7.906;2022-12-29T13:40:23;8.40;73.50
77207;DHT22;66190;50.708;7.906;2022-12-29T13:42:50;8.40;72.70
77207;DHT22;66190;50.708;7.906;2022-12-29T13:45:20;8.40;73.30
77207;DHT22;66190;50.708;7.906;2022-12-29T13:48:05;8.40;73.90
77207;DHT22;66190;50.708;7.906;2022-12-29T13:50:36;8.40;74.10
77207;DHT22;66190;50.708;7.906;2022-12-29T13:56:04;8.40;73.60
77207;DHT22;66190;50.708;7.906;2022-12-29T13:58:45;8.40;73.70
77207;DHT22;66190;50.708;7.906;2022-12-29T14:01:25;8.40;73.50
77207;DHT22;66190;50.708;7.906;2022-12-29T14:03:57;8.50;72.60
77207;DHT22;66190;50.708;7.906;2022-12-29T14:06:28;8.40;72.60
77207;DHT22;66190;50.708;7.906;2022-12-29T14:08:57;8.40;73.10
77207;DHT22;66190;50.708;7.906;2022-12-29T14:11:33;8.50;72.70
77207;DHT22;66190;50.708;7.906;2022-12-29T14:14:25;8.50;73.00
77207;DHT22;66190;50.708;7.906;2022-12-29T14:16:53;8.40;73.50
77207;DHT22;66190;50.708;7.906;2022-12-29T14:19:31;8.40;74.10
77207;DHT22;66190;50.708;7.906;2022-12-29T14:22:00;8.40;74.30
77207;DHT22;66190;50.708;7.906;2022-12-29T14:29:51;8.40;74.30
77207;DHT22;66190;50.708;7.906;2022-12-29T14:34:53;8.30;75.30
77207;DHT22;66190;50.708;7.906;2022-12-29T14:37:37;8.30;75.90
77207;DHT22;66190;50.708;7.906;2022-12-29T14:40:23;8.40;74.60
77207;DHT22;66190;50.708;7.906;2022-12-29T14:42:52;8.30;74.20
77207;DHT22;66190;50.708;7.906;2022-12-29T14:47:46;8.40;74.20
77207;DHT22;66190;50.708;7.906;2022-12-29T14:50:22;8.30;74.40
77207;DHT22;66190;50.708;7.906;2022-12-29T14:52:59;8.30;73.60
77207;DHT22;66190;50.708;7.906;2022-12-29T14:55:46;8.30;72.90
77207;DHT22;66190;50.708;7.906;2022-12-29T14:58:22;8.30;72.40
77207;DHT22;66190;50.708;7.906;2022-12-29T15:00:51;8.20;72.30
77207;DHT22;66190;50.708;7.906;2022-12-29T15:03:19;8.20;73.00
77207;DHT22;66190;50.708;7.906;2022-12-29T15:06:09;8.10;72.70
77207;DHT22;66190;50.708;7.906;2022-12-29T15:08:50;8.10;72.80
77207;DHT22;66190;50.708;7.906;2022-12-29T15:14:02;8.00;73.20
77207;DHT22;66190;50.708;7.906;2022-12-29T15:16:31;8.00;73.20
77207;DHT22;66190;50.708;7.906;2022-12-29T15:18:58;8.00;72.80
77207;DHT22;66190;50.708;7.906;2022-12-29T15:21:32;8.00;72.80
77207;DHT22;66190;50.708;7.906;2022-12-29T15:23:59;8.10;71.00
77207;DHT22;66190;50.708;7.906;2022-12-29T15:26:37;8.10;71.10
77207;DHT22;66190;50.708;7.906;2022-12-29T15:29:04;8.00;71.40
77207;DHT22;66190;50.708;7.906;2022-12-29T15:31:29;8.10;70.70
77207;DHT22;66190;50.708;7.906;2022-12-29T15:34:07;8.10;71.10
77207;DHT22;66190;50.708;7.906;2022-12-29T15:36:38;8.10;71.20
77207;DHT22;66190;50.708;7.906;2022-12-29T15:39:34;8.20;70.80
77207;DHT22;66190;50.708;7.906;2022-12-29T15:44:39;8.10;70.50
77207;DHT22;66190;50.708;7.906;2022-12-29T15:47:29;8.10;70.50
77207;DHT22;66190;50.708;7.906;2022-12-29T15:50:04;7.90;71.00
77207;DHT22;66190;50.708;7.906;2022-12-29T15:52:32;8.00;71.20
77207;DHT22;66190;50.708;7.906;2022-12-29T15:54:59;7.90;71.50
77207;DHT22;66190;50.708;7.906;2022-12-29T15:57:31;8.00;71.00
77207;DHT22;66190;50.708;7.906;2022-12-29T16:00:02;8.00;71.20
77207;DHT22;66190;50.708;7.906;2022-12-29T16:02:29;7.90;71.00
77207;DHT22;66190;50.708;7.906;2022-12-29T16:04:55;7.90;71.70
77207;DHT22;66190;50.708;7.906;2022-12-29T16:07:34;7.90;71.80
77207;DHT22;66190;50.708;7.906;2022-12-29T16:10:03;7.80;72.10
77207;DHT22;66190;50.708;7.906;2022-12-29T16:15:19;7.90;71.20
77207;DHT22;66190;50.708;7.906;2022-12-29T16:17:50;7.80;71.60
77207;DHT22;66190;50.708;7.906;2022-12-29T16:20:21;7.80;71.20
77207;DHT22;66190;50.708;7.906;2022-12-29T16:22:57;7.80;71.30
77207;DHT22;66190;50.708;7.906;2022-12-29T16:25:28;7.80;71.60
77207;DHT22;66190;50.708;7.906;2022-12-29T16:27:57;7.80;71.70
77207;DHT22;66190;50.708;7.906;2022-12-29T16:30:26;7.80;71.70
77207;DHT22;66190;50.708;7.906;2022-12-29T16:32:55;7.80;71.30
77207;DHT22;66190;50.708;7.906;2022-12-29T16:35:24;7.80;71.20
77207;DHT22;66190;50.708;7.906;2022-12-29T16:38:14;7.80;71.60
77207;DHT22;66190;50.708;7.906;2022-12-29T16:50:50;7.60;72.00
77207;DHT22;66190;50.708;7.906;2022-12-29T16:53:25;7.60;72.20
77207;DHT22;66190;50.708;7.906;2022-12-29T16:55:55;7.50;72.70
77207;DHT22;66190;50.708;7.906;2022-12-29T16:58:25;7.60;72.60
77207;DHT22;66190;50.708;7.906;2022-12-29T17:00:55;7.60;72.60
77207;DHT22;66190;50.708;7.906;2022-12-29T17:03:23;7.50;72.90
77207;DHT22;66190;50.708;7.906;2022-12-29T17:06:02;7.50;72.90
77207;DHT22;66190;50.708;7.906;2022-12-29T17:08:28;7.50;73.30
77207;DHT22;66190;50.708;7.906;2022-12-29T17:10:55;7.50;73.50
77207;DHT22;66190;50.708;7.906;2022-12-29T17:13:41;7.40;73.80
77207;DHT22;66190;50.708;7.906;2022-12-29T17:16:09;7.40;73.90
77207;DHT22;66190;50.708;7.906;2022-12-29T17:18:35;7.40;74.10
77207;DHT22;66190;50.708;7.906;2022-12-29T17:21:01;7.40;74.40
77207;DHT22;66190;50.708;7.906;2022-12-29T17:23:28;7.40;74.70
77207;DHT22;66190;50.708;7.906;2022-12-29T17:25:55;7.30;75.10
77207;DHT22;66190;50.708;7.906;2022-12-29T17:28:24;7.30;74.60
77207;DHT22;66190;50.708;7.906;2022-12-29T17:30:52;7.30;75.00
77207;DHT22;66190;50.708;7.906;2022-12-29T17:33:19;7.30;74.90
77207;DHT22;66190;50.708;7.906;2022-12-29T17:35:46;7.30;75.40
77207;DHT22;66190;50.708;7.906;2022-12-29T17:38:25;7.30;74.70
77207;DHT22;66190;50.708;7.906;2022-12-29T17:40:52;7.30;75.10
77207;DHT22;66190;50.708;7.906;2022-12-29T17:43:18;7.30;75.50
77207;DHT22;66190;50.708;7.906;2022-12-29T17:45:48;7.20;75.00
77207;DHT22;66190;50.708;7.906;2022-12-29T17:48:16;7.20;75.50
77207;DHT22;66190;50.708;7.906;2022-12-29T17:50:43;7.20;75.40
77207;DHT22;66190;50.708;7.906;2022-12-29T17:53:15;7.20;75.00
77207;DHT22;66190;50.708;7.906;2022-12-29T17:55:42;7.20;75.30
77207;DHT22;66190;50.708;7.906;2022-12-29T17:58:19;7.20;75.80
77207;DHT22;66190;50.708;7.906;2022-12-29T18:00:51;7.20;75.60
77207;DHT22;66190;50.708;7.906;2022-12-29T18:03:20;7.10;76.00
77207;DHT22;66190;50.708;7.906;2022-12-29T18:05:47;7.10;76.40
77207;DHT22;66190;50.708;7.906;2022-12-29T18:08:14;7.00;76.60
77207;DHT22;66190;50.708;7.906;2022-12-29T18:10:39;7.00;77.20
77207;DHT22;66190;50.708;7.906;2022-12-29T18:13:06;6.90;77.50
77207;DHT22;66190;50.708;7.906;2022-12-29T18:15:34;6.80;78.00
77207;DHT22;66190;50.708;7.906;2022-12-29T18:18:15;6.80;78.30
77207;DHT22;66190;50.708;7.906;2022-12-29T18:20:42;6.80;78.60
77207;DHT22;66190;50.708;7.906;2022-12-29T18:23:23;6.80;78.70
77207;DHT22;66190;50.708;7.906;2022-12-29T18:25:59;6.70;78.70